Marianne — VRFM5 — position and weather

sailwx.info

Track history (hours):
 
Tides and Currents Weather Stations Pressure Air Temp Water Temp Dewpoint Dewpoint Depression Visibility Wind Speed Wind Dir Waves Ship Positions

Marianne

Last reported at 2015-Jun-30 19:27 UTC. Time now 2015-Jul-02 16:34 UTC.
Position N 59°22' E 004°25'.

Length 97 m; draft 5.5 m.

Type: Ship (hazmat cat B). MMSI: 477560836.

Date/timePositionNaut miles runAvg speedWind from/ knotsBaromVisibWave heightAir tempDewpointWater temp
2015-Jun-30 19:27N 59°22' E 004°25'1314.0
2015-Jun-30 18:30N 59°09' E 004°31'1314.1
2015-Jun-30 17:33N 58°56' E 004°39'1414.2
2015-Jun-30 16:33N 58°43' E 004°47'1614.5
2015-Jun-30 15:25N 58°27' E 004°56'1414.2
2015-Jun-30 14:26N 58°13' E 005°02'1214.0
2015-Jun-30 13:32N 58°01' E 005°06'22413.9
2015-Jun-29 21:26N 54°17' E 005°13'1214.0
2015-Jun-29 20:33N 54°06' E 005°07'1414.1
2015-Jun-29 19:34N 53°52' E 004°60'1414.4
2015-Jun-29 18:33N 53°39' E 004°51'1414.3
2015-Jun-29 17:34N 53°25' E 004°44'1514.9
2015-Jun-29 16:33N 53°12' E 004°32'1515.3
2015-Jun-29 15:33N 52°59' E 004°19'1515.3
2015-Jun-29 14:33N 52°45' E 004°06'1515.5
2015-Jun-29 13:34N 52°34' E 003°49'1515.2
2015-Jun-29 12:34N 52°24' E 003°31'1515.0
2015-Jun-29 11:34N 52°09' E 003°26'1514.9
2015-Jun-29 10:33N 51°54' E 003°22'5 0.6
2015-Jun-29 01:19N 51°49' E 003°22'0 0.0
2015-Jun-28 21:07N 51°49' E 003°22'0 0.1
2015-Jun-28 20:22N 51°49' E 003°22'0 0.0
2015-Jun-28 11:19N 51°49' E 003°22'0 0.0
2015-Jun-28 10:19N 51°49' E 003°22'0 0.0
2015-Jun-28 09:31N 51°49' E 003°22'0 0.0
2015-Jun-28 08:31N 51°49' E 003°22'0 0.1
2015-Jun-28 07:31N 51°49' E 003°22'0 0.0
2015-Jun-28 06:31N 51°49' E 003°22'0 0.0
2015-Jun-28 05:19N 51°49' E 003°22'0 0.0
2015-Jun-28 04:31N 51°49' E 003°22'0 0.1
2015-Jun-28 03:33N 51°49' E 003°22'8 8.5
2015-Jun-28 02:33N 51°40' E 003°18'1414.2
2015-Jun-28 01:33N 51°28' E 003°30'1212.2
2015-Jun-28 00:33N 51°22' E 003°47'1010.0
2015-Jun-27 23:33N 51°23' E 004°02'10 9.6
2015-Jun-27 22:34N 51°19' E 004°16'4 3.6
2015-Jun-27 21:34N 51°16' E 004°17'1 0.9
2015-Jun-27 20:32N 51°16' E 004°15'0 0.0
2015-Jun-27 19:32N 51°16' E 004°15'0 0.0
2015-Jun-27 18:32N 51°16' E 004°15'0 0.0
2015-Jun-27 17:32N 51°16' E 004°15'0 0.0
2015-Jun-27 16:32N 51°16' E 004°15'0 0.0
2015-Jun-27 15:32N 51°16' E 004°15'0 0.0
2015-Jun-27 14:32N 51°16' E 004°15'0 0.0
2015-Jun-27 13:32N 51°16' E 004°15'0 0.0
2015-Jun-27 12:29N 51°16' E 004°15'0 0.0
2015-Jun-27 11:32N 51°16' E 004°15'0 0.0
2015-Jun-27 10:32N 51°16' E 004°15'0 0.0
2015-Jun-27 09:32N 51°16' E 004°15'0 0.0
2015-Jun-27 08:32N 51°16' E 004°15'0 0.0
2015-Jun-27 07:32N 51°16' E 004°15'0 0.0
2015-Jun-27 06:32N 51°16' E 004°15'0 0.0
2015-Jun-27 05:32N 51°16' E 004°15'0 0.0
2015-Jun-27 04:32N 51°16' E 004°15'0 0.0
2015-Jun-27 03:32N 51°16' E 004°15'0 0.0
2015-Jun-27 02:32N 51°16' E 004°15'0 0.0
2015-Jun-27 01:32N 51°16' E 004°15'0 0.0
2015-Jun-27 00:32N 51°16' E 004°15'0 0.0
2015-Jun-26 23:32N 51°16' E 004°15'0 0.0
2015-Jun-26 22:32N 51°16' E 004°15'0 0.0
2015-Jun-26 21:29N 51°16' E 004°15'0 0.0
2015-Jun-26 20:32N 51°16' E 004°15'0 0.0
2015-Jun-26 19:33N 51°16' E 004°15'1 1.0
2015-Jun-26 18:33N 51°16' E 004°17'3 3.1
2015-Jun-26 17:34N 51°19' E 004°16'9 9.1
2015-Jun-26 16:33N 51°23' E 004°03'7 6.8
2015-Jun-26 15:34N 51°21' E 003°52'10 9.8
2015-Jun-26 14:34N 51°26' E 003°39'8 8.1
2015-Jun-26 13:33N 51°30' E 003°28'1111.0
2015-Jun-26 12:33N 51°40' E 003°18'6 6.2
2015-Jun-26 11:30N 51°46' E 003°18'0 0.0
2015-Jun-26 10:33N 51°46' E 003°18'0 0.0
2015-Jun-26 09:33N 51°46' E 003°18'0 0.0
2015-Jun-26 08:30N 51°46' E 003°18'0 0.0
2015-Jun-26 07:33N 51°46' E 003°18'0 0.0
2015-Jun-26 06:21N 51°46' E 003°18'0 0.1
2015-Jun-26 05:30N 51°46' E 003°18'0 0.0
2015-Jun-26 04:30N 51°46' E 003°18'0 0.0
2015-Jun-26 02:27N 51°46' E 003°18'0 0.0
2015-Jun-25 23:24N 51°46' E 003°18'0 0.0
2015-Jun-25 22:24N 51°46' E 003°18'0 0.0
2015-Jun-25 21:27N 51°46' E 003°18'0 0.0
2015-Jun-25 20:33N 51°46' E 003°18'0 0.0
2015-Jun-25 19:30N 51°46' E 003°18'0 0.0
2015-Jun-25 18:18N 51°46' E 003°18'0 0.1
2015-Jun-25 17:15N 51°46' E 003°18'0 0.0
2015-Jun-25 16:33N 51°46' E 003°18'0 0.0
2015-Jun-25 15:33N 51°46' E 003°18'0 0.0
2015-Jun-25 14:33N 51°46' E 003°18'0 0.0
2015-Jun-25 13:33N 51°46' E 003°18'2 0.2
2015-Jun-25 03:19N 51°48' E 003°18'1114.0
2015-Jun-25 02:33N 51°59' E 003°20'1414.1
2015-Jun-25 01:33N 52°13' E 003°23'1613.7
2015-Jun-25 00:23N 52°29' E 003°28'1112.8
2015-Jun-24 23:31N 52°39' E 003°33'1212.4
2015-Jun-24 22:31N 52°49' E 003°46'1212.1
2015-Jun-24 21:30N 52°58' E 004°00'1112.1
2015-Jun-24 20:34N 53°05' E 004°14'1212.3
2015-Jun-24 19:33N 53°14' E 004°28'1313.2
2015-Jun-24 18:34N 53°27' E 004°34'1413.6
2015-Jun-24 17:33N 53°40' E 004°41'1313.5
2015-Jun-24 16:34N 53°53' E 004°48'1313.3
2015-Jun-24 15:33N 54°06' E 004°54'256 5.8
2015-Jun-22 19:33N 58°21' E 005°01'1313.0
2015-Jun-22 18:33N 58°09' E 005°10'1413.6
2015-Jun-22 17:33N 57°57' E 005°23'22612.5
2015-Jun-21 23:33N 54°11' E 005°13'1414.5
2015-Jun-21 22:33N 53°58' E 005°04'1514.7
2015-Jun-21 21:33N 53°44' E 004°55'1514.8
2015-Jun-21 20:34N 53°31' E 004°46'1515.5
2015-Jun-21 19:33N 53°16' E 004°36'1615.9
2015-Jun-21 18:31N 53°02' E 004°22'1515.5
2015-Jun-21 17:33N 52°49' E 004°12'1515.0
2015-Jun-21 16:33N 52°38' E 003°55'1514.6
2015-Jun-21 15:31N 52°27' E 003°37'1313.1
2015-Jun-21 14:30N 52°15' E 003°29'1312.6
2015-Jun-21 13:26N 52°02' E 003°24'1312.7
2015-Jun-21 12:25N 51°49' E 003°18'1310.9
2015-Jun-21 11:12N 51°36' E 003°23'711.0
2015-Jun-21 10:33N 51°30' E 003°28'1010.3
2015-Jun-21 09:34N 51°24' E 003°41'1111.2
2015-Jun-21 08:34N 51°26' E 003°59'1111.3
2015-Jun-21 07:33N 51°21' E 004°15'5 5.3
2015-Jun-21 06:33N 51°17' E 004°20'2 1.9
2015-Jun-21 05:33N 51°15' E 004°22'0 0.0
2015-Jun-21 04:33N 51°15' E 004°22'0 0.0
2015-Jun-21 03:33N 51°15' E 004°22'0 0.0
2015-Jun-21 02:33N 51°15' E 004°22'0 0.0
2015-Jun-21 01:33N 51°15' E 004°22'0 0.0
2015-Jun-21 00:33N 51°15' E 004°22'0 0.0
2015-Jun-20 23:33N 51°15' E 004°22'0 0.0
2015-Jun-20 22:33N 51°15' E 004°22'0 0.0
2015-Jun-20 21:33N 51°15' E 004°22'0 0.0
2015-Jun-20 20:33N 51°15' E 004°22'0 0.0
2015-Jun-20 19:33N 51°15' E 004°22'  
Track history (hours):
 
Tides and Currents Weather Stations Pressure Air Temp Water Temp Dewpoint Dewpoint Depression Visibility Wind Speed Wind Dir Waves Ship Positions

Marianne

Last reported at 2015-Jun-30 19:27 UTC. Time now 2015-Jul-02 16:34 UTC.
Position N 59°22' E 004°25'.

Length 97 m; draft 5.5 m.

Type: Ship (hazmat cat B). MMSI: 477560836.

Date/timePositionNaut miles runAvg speedWind from/ knotsBaromVisibWave heightAir tempDewpointWater temp
2015-Jun-30 19:27N 59°22' E 004°25'1314.0
2015-Jun-30 18:30N 59°09' E 004°31'1314.1
2015-Jun-30 17:33N 58°56' E 004°39'1414.2
2015-Jun-30 16:33N 58°43' E 004°47'1614.5
2015-Jun-30 15:25N 58°27' E 004°56'1414.2
2015-Jun-30 14:26N 58°13' E 005°02'1214.0
2015-Jun-30 13:32N 58°01' E 005°06'22413.9
2015-Jun-29 21:26N 54°17' E 005°13'1214.0
2015-Jun-29 20:33N 54°06' E 005°07'1414.1
2015-Jun-29 19:34N 53°52' E 004°60'1414.4
2015-Jun-29 18:33N 53°39' E 004°51'1414.3
2015-Jun-29 17:34N 53°25' E 004°44'1514.9
2015-Jun-29 16:33N 53°12' E 004°32'1515.3
2015-Jun-29 15:33N 52°59' E 004°19'1515.3
2015-Jun-29 14:33N 52°45' E 004°06'1515.5
2015-Jun-29 13:34N 52°34' E 003°49'1515.2
2015-Jun-29 12:34N 52°24' E 003°31'1515.0
2015-Jun-29 11:34N 52°09' E 003°26'1514.9
2015-Jun-29 10:33N 51°54' E 003°22'5 0.6
2015-Jun-29 01:19N 51°49' E 003°22'0 0.0
2015-Jun-28 21:07N 51°49' E 003°22'0 0.1
2015-Jun-28 20:22N 51°49' E 003°22'0 0.0
2015-Jun-28 11:19N 51°49' E 003°22'0 0.0
2015-Jun-28 10:19N 51°49' E 003°22'0 0.0
2015-Jun-28 09:31N 51°49' E 003°22'0 0.0
2015-Jun-28 08:31N 51°49' E 003°22'0 0.1
2015-Jun-28 07:31N 51°49' E 003°22'0 0.0
2015-Jun-28 06:31N 51°49' E 003°22'0 0.0
2015-Jun-28 05:19N 51°49' E 003°22'0 0.0
2015-Jun-28 04:31N 51°49' E 003°22'0 0.1
2015-Jun-28 03:33N 51°49' E 003°22'8 8.5
2015-Jun-28 02:33N 51°40' E 003°18'1414.2
2015-Jun-28 01:33N 51°28' E 003°30'1212.2
2015-Jun-28 00:33N 51°22' E 003°47'1010.0
2015-Jun-27 23:33N 51°23' E 004°02'10 9.6
2015-Jun-27 22:34N 51°19' E 004°16'4 3.6
2015-Jun-27 21:34N 51°16' E 004°17'1 0.9
2015-Jun-27 20:32N 51°16' E 004°15'0 0.0
2015-Jun-27 19:32N 51°16' E 004°15'0 0.0
2015-Jun-27 18:32N 51°16' E 004°15'0 0.0
2015-Jun-27 17:32N 51°16' E 004°15'0 0.0
2015-Jun-27 16:32N 51°16' E 004°15'0 0.0
2015-Jun-27 15:32N 51°16' E 004°15'0 0.0
2015-Jun-27 14:32N 51°16' E 004°15'0 0.0
2015-Jun-27 13:32N 51°16' E 004°15'0 0.0
2015-Jun-27 12:29N 51°16' E 004°15'0 0.0
2015-Jun-27 11:32N 51°16' E 004°15'0 0.0
2015-Jun-27 10:32N 51°16' E 004°15'0 0.0
2015-Jun-27 09:32N 51°16' E 004°15'0 0.0
2015-Jun-27 08:32N 51°16' E 004°15'0 0.0
2015-Jun-27 07:32N 51°16' E 004°15'0 0.0
2015-Jun-27 06:32N 51°16' E 004°15'0 0.0
2015-Jun-27 05:32N 51°16' E 004°15'0 0.0
2015-Jun-27 04:32N 51°16' E 004°15'0 0.0
2015-Jun-27 03:32N 51°16' E 004°15'0 0.0
2015-Jun-27 02:32N 51°16' E 004°15'0 0.0
2015-Jun-27 01:32N 51°16' E 004°15'0 0.0
2015-Jun-27 00:32N 51°16' E 004°15'0 0.0
2015-Jun-26 23:32N 51°16' E 004°15'0 0.0
2015-Jun-26 22:32N 51°16' E 004°15'0 0.0
2015-Jun-26 21:29N 51°16' E 004°15'0 0.0
2015-Jun-26 20:32N 51°16' E 004°15'0 0.0
2015-Jun-26 19:33N 51°16' E 004°15'1 1.0
2015-Jun-26 18:33N 51°16' E 004°17'3 3.1
2015-Jun-26 17:34N 51°19' E 004°16'9 9.1
2015-Jun-26 16:33N 51°23' E 004°03'7 6.8
2015-Jun-26 15:34N 51°21' E 003°52'10 9.8
2015-Jun-26 14:34N 51°26' E 003°39'8 8.1
2015-Jun-26 13:33N 51°30' E 003°28'1111.0
2015-Jun-26 12:33N 51°40' E 003°18'6 6.2
2015-Jun-26 11:30N 51°46' E 003°18'0 0.0
2015-Jun-26 10:33N 51°46' E 003°18'0 0.0
2015-Jun-26 09:33N 51°46' E 003°18'0 0.0
2015-Jun-26 08:30N 51°46' E 003°18'0 0.0
2015-Jun-26 07:33N 51°46' E 003°18'0 0.0
2015-Jun-26 06:21N 51°46' E 003°18'0 0.1
2015-Jun-26 05:30N 51°46' E 003°18'0 0.0
2015-Jun-26 04:30N 51°46' E 003°18'0 0.0
2015-Jun-26 02:27N 51°46' E 003°18'0 0.0
2015-Jun-25 23:24N 51°46' E 003°18'0 0.0
2015-Jun-25 22:24N 51°46' E 003°18'0 0.0
2015-Jun-25 21:27N 51°46' E 003°18'0 0.0
2015-Jun-25 20:33N 51°46' E 003°18'0 0.0
2015-Jun-25 19:30N 51°46' E 003°18'0 0.0
2015-Jun-25 18:18N 51°46' E 003°18'0 0.1
2015-Jun-25 17:15N 51°46' E 003°18'0 0.0
2015-Jun-25 16:33N 51°46' E 003°18'0 0.0
2015-Jun-25 15:33N 51°46' E 003°18'0 0.0
2015-Jun-25 14:33N 51°46' E 003°18'0 0.0
2015-Jun-25 13:33N 51°46' E 003°18'2 0.2
2015-Jun-25 03:19N 51°48' E 003°18'1114.0
2015-Jun-25 02:33N 51°59' E 003°20'1414.1
2015-Jun-25 01:33N 52°13' E 003°23'1613.7
2015-Jun-25 00:23N 52°29' E 003°28'1112.8
2015-Jun-24 23:31N 52°39' E 003°33'1212.4
2015-Jun-24 22:31N 52°49' E 003°46'1212.1
2015-Jun-24 21:30N 52°58' E 004°00'1112.1
2015-Jun-24 20:34N 53°05' E 004°14'1212.3
2015-Jun-24 19:33N 53°14' E 004°28'1313.2
2015-Jun-24 18:34N 53°27' E 004°34'1413.6
2015-Jun-24 17:33N 53°40' E 004°41'1313.5
2015-Jun-24 16:34N 53°53' E 004°48'1313.3
2015-Jun-24 15:33N 54°06' E 004°54'256 5.8
2015-Jun-22 19:33N 58°21' E 005°01'1313.0
2015-Jun-22 18:33N 58°09' E 005°10'1413.6
2015-Jun-22 17:33N 57°57' E 005°23'22612.5
2015-Jun-21 23:33N 54°11' E 005°13'1414.5
2015-Jun-21 22:33N 53°58' E 005°04'1514.7
2015-Jun-21 21:33N 53°44' E 004°55'1514.8
2015-Jun-21 20:34N 53°31' E 004°46'1515.5
2015-Jun-21 19:33N 53°16' E 004°36'1615.9
2015-Jun-21 18:31N 53°02' E 004°22'1515.5
2015-Jun-21 17:33N 52°49' E 004°12'1515.0
2015-Jun-21 16:33N 52°38' E 003°55'1514.6
2015-Jun-21 15:31N 52°27' E 003°37'1313.1
2015-Jun-21 14:30N 52°15' E 003°29'1312.6
2015-Jun-21 13:26N 52°02' E 003°24'1312.7
2015-Jun-21 12:25N 51°49' E 003°18'1310.9
2015-Jun-21 11:12N 51°36' E 003°23'711.0
2015-Jun-21 10:33N 51°30' E 003°28'1010.3
2015-Jun-21 09:34N 51°24' E 003°41'1111.2
2015-Jun-21 08:34N 51°26' E 003°59'1111.3
2015-Jun-21 07:33N 51°21' E 004°15'5 5.3
2015-Jun-21 06:33N 51°17' E 004°20'2 1.9
2015-Jun-21 05:33N 51°15' E 004°22'0 0.0
2015-Jun-21 04:33N 51°15' E 004°22'0 0.0
2015-Jun-21 03:33N 51°15' E 004°22'0 0.0
2015-Jun-21 02:33N 51°15' E 004°22'0 0.0
2015-Jun-21 01:33N 51°15' E 004°22'0 0.0
2015-Jun-21 00:33N 51°15' E 004°22'0 0.0
2015-Jun-20 23:33N 51°15' E 004°22'0 0.0
2015-Jun-20 22:33N 51°15' E 004°22'0 0.0
2015-Jun-20 21:33N 51°15' E 004°22'0 0.0
2015-Jun-20 20:33N 51°15' E 004°22'0 0.0
2015-Jun-20 19:33N 51°15' E 004°22'  

Dump ship's entire track history